Fredonia, Kentucky
Current Conditions -  °F | °C
As of 8:15 PM on Friday 28 Nov 2014 (Local Time) from K5M9 Reporting Station
Clear Clear  
Wind Chill: 36°   Ceiling: Unl
Heat Index: 42°   Visibility: 10mi
Dew Point: 27°   Wind: 10mph
Humidity: 54%   Direction: 200°SSW
Pressure: 30.04"   Gusts: 18mph
Location:  37.21°N, 88.06°W
Report Text: K5M9 290215Z AUTO 20009G16KT 10SM CLR 06/M03 A3004 RMK AO2 T00561030
Loading
Personal Weather Stations






























Interactive Weather Map New forecast layout! Learn more

10-Day Weather Forecast

Advertisements
Track Severe Weather on mobile